Time;durP1;ratioP1;P1;durP2;ratioP2;P2;SDS_P1;SDS_P2;PMS_P1;PMS_P2;Temp;Humidity;BMP_temperature;BMP_pressure;BME280_temperature;BME280_humidity;BME280_pressure;Samples;Min_cycle;Max_cycle;Signal;HPM_P1;HPM_P2
2022/03/21 00:02:01;;;;;;;3.17;2.38;;;;;;;19.16;38.70;98627.16;10489371;28;20053;-59
2022/03/21 00:07:20;;;;;;;3.10;2.50;;;;;;;19.15;38.56;98631.75;10482823;28;20484;-59
2022/03/21 00:12:40;;;;;;;3.45;2.50;;;;;;;19.13;38.79;98628.53;10481705;28;20056;-59
2022/03/21 00:18:02;;;;;;;3.03;2.40;;;;;;;19.12;38.55;98631.50;10493935;28;20041;-59
2022/03/21 00:23:23;;;;;;;2.70;2.40;;;;;;;19.10;38.46;98620.97;10484017;28;20056;-59
2022/03/21 00:28:43;;;;;;;3.53;2.30;;;;;;;19.09;38.66;98619.38;10476016;28;20057;-59
2022/03/21 00:34:03;;;;;;;2.60;2.35;;;;;;;19.10;38.63;98606.66;10513354;28;20078;-60
2022/03/21 00:39:22;;;;;;;2.58;2.38;;;;;;;19.08;38.47;98595.31;10495189;28;20762;-59
2022/03/21 00:44:43;;;;;;;2.75;2.40;;;;;;;19.05;38.57;98588.59;10457851;28;20060;-58
2022/03/21 00:50:05;;;;;;;4.43;2.38;;;;;;;19.06;38.42;98586.69;10488328;28;20056;-59
2022/03/21 00:55:31;;;;;;;3.28;2.30;;;;;;;19.04;38.48;98578.06;10484232;28;20055;-59
2022/03/21 01:00:50;;;;;;;2.83;2.10;;;;;;;19.04;38.38;98581.56;10518079;28;20040;-59
2022/03/21 01:06:10;;;;;;;2.70;2.10;;;;;;;19.03;38.35;98571.03;10489661;28;20063;-59
2022/03/21 01:11:29;;;;;;;2.92;2.40;;;;;;;19.01;38.31;98565.88;10507489;28;20047;-59
2022/03/21 01:16:53;;;;;;;2.20;2.00;;;;;;;18.99;38.50;98562.66;10485181;28;20045;-59
2022/03/21 01:22:13;;;;;;;3.30;2.30;;;;;;;18.98;38.42;98563.75;10478496;28;20036;-58
2022/03/21 01:27:34;;;;;;;2.30;2.08;;;;;;;18.98;38.38;98557.56;10504825;28;20045;-58
2022/03/21 01:32:53;;;;;;;2.42;2.22;;;;;;;18.96;38.33;98557.84;10483633;28;20053;-59
2022/03/21 01:38:13;;;;;;;2.35;2.08;;;;;;;18.94;38.42;98552.69;10485267;28;20049;-59
2022/03/21 01:43:32;;;;;;;2.28;2.08;;;;;;;18.94;38.33;98551.91;10475557;28;20110;-60
2022/03/21 01:48:51;;;;;;;2.42;2.20;;;;;;;18.92;38.25;98562.97;10513492;28;20044;-59
2022/03/21 01:59:50;;;;;;;2.70;2.10;;;;;;;18.90;38.33;98565.16;10506849;28;20044;-59
2022/03/21 02:05:10;;;;;;;2.30;2.05;;;;;;;18.89;38.23;98558.13;10467353;28;20053;-60
2022/03/21 02:10:30;;;;;;;2.10;1.90;;;;;;;18.88;38.17;98553.81;10490601;28;20064;-59
2022/03/21 02:15:50;;;;;;;2.05;1.90;;;;;;;18.87;38.19;98546.78;10526494;28;20552;-59
2022/03/21 02:21:16;;;;;;;2.20;1.77;;;;;;;18.86;38.22;98547.09;10516858;28;20421;-59
2022/03/21 02:26:38;;;;;;;2.30;2.10;;;;;;;18.84;38.17;98541.16;10494057;28;20097;-60
2022/03/21 02:31:57;;;;;;;2.20;2.00;;;;;;;18.84;38.13;98543.84;10475536;28;20454;-60
2022/03/21 02:37:17;;;;;;;2.15;1.95;;;;;;;18.81;38.12;98531.69;10508825;28;20052;-60
2022/03/21 02:42:37;;;;;;;2.53;2.25;;;;;;;18.81;38.02;98541.69;10504021;28;20109;-60
2022/03/21 02:47:57;;;;;;;2.65;2.20;;;;;;;18.80;38.10;98554.41;10479038;28;20075;-59
2022/03/21 02:53:16;;;;;;;2.20;1.80;;;;;;;18.78;37.96;98557.34;10492325;28;20079;-60
2022/03/21 02:58:36;;;;;;;2.47;2.00;;;;;;;18.78;37.99;98551.13;10489741;28;20479;-60
2022/03/21 03:03:56;;;;;;;2.05;1.85;;;;;;;18.76;38.06;98548.69;10506237;28;20040;-60
2022/03/21 03:09:15;;;;;;;2.35;1.92;;;;;;;18.75;37.90;98557.88;10483895;28;20418;-60
2022/03/21 03:14:35;;;;;;;2.10;1.90;;;;;;;18.76;38.06;98553.31;10480864;28;20508;-59
2022/03/21 03:19:55;;;;;;;2.03;1.83;;;;;;;18.72;38.12;98553.03;10476094;28;20411;-60
2022/03/21 03:25:14;;;;;;;1.90;1.70;;;;;;;18.70;38.00;98555.22;10526929;28;20502;-60
2022/03/21 03:30:35;;;;;;;2.20;2.00;;;;;;;18.71;38.02;98561.41;10481764;28;20091;-59
2022/03/21 03:35:55;;;;;;;2.22;1.92;;;;;;;18.70;38.02;98560.59;10508040;28;20055;-60
2022/03/21 03:41:15;;;;;;;1.70;1.60;;;;;;;18.68;38.16;98559.25;10503211;28;20055;-60
2022/03/21 03:46:35;;;;;;;2.40;1.90;;;;;;;18.68;37.82;98564.66;10502902;28;20052;-60
2022/03/21 03:51:54;;;;;;;2.00;1.80;;;;;;;18.66;37.94;98559.53;10495164;28;20064;-59
2022/03/21 03:57:14;;;;;;;2.00;1.80;;;;;;;18.65;37.81;98559.81;10474614;28;20099;-60
2022/03/21 04:03:44;;;;;;;2.13;1.90;;;;;;;18.64;37.79;98561.72;10490561;28;20060;-60
2022/03/21 04:08:14;;;;;;;2.13;1.90;;;;;;;18.63;37.82;98561.97;10489827;28;20051;-59
2022/03/21 04:13:33;;;;;;;2.30;1.85;;;;;;;18.61;37.82;98562.25;10490752;28;20433;-60
2022/03/21 04:18:52;;;;;;;2.47;2.08;;;;;;;18.62;37.92;98566.59;10485565;28;20063;-60
2022/03/21 04:24:12;;;;;;;2.00;1.80;;;;;;;18.60;37.74;98560.63;10497175;28;20044;-59
2022/03/21 04:29:31;;;;;;;2.28;2.08;;;;;;;18.57;37.83;98567.38;10503056;28;20052;-60
2022/03/21 04:34:50;;;;;;;1.88;1.70;;;;;;;18.57;37.75;98556.59;10471097;28;20067;-60
2022/03/21 04:40:10;;;;;;;2.00;1.80;;;;;;;18.56;37.84;98573.06;10494992;28;20056;-59
2022/03/21 04:45:29;;;;;;;1.98;1.88;;;;;;;18.56;37.67;98562.25;10487713;28;20052;-59
2022/03/21 04:50:49;;;;;;;2.00;1.63;;;;;;;18.54;37.67;98562.56;10483018;28;20048;-59
2022/03/21 04:56:09;;;;;;;1.67;1.58;;;;;;;18.53;37.76;98558.22;10459924;28;20045;-59
2022/03/21 05:01:28;;;;;;;2.78;2.10;;;;;;;18.53;37.69;98555.53;10497318;28;20043;-59
2022/03/21 05:06:48;;;;;;;2.15;1.95;;;;;;;18.51;37.78;98546.09;10506866;28;20032;-60
2022/03/21 05:12:09;;;;;;;2.55;2.10;;;;;;;18.50;38.17;98549.88;10499371;28;20056;-60
2022/03/21 05:17:29;;;;;;;2.13;1.92;;;;;;;18.50;38.46;98545.28;10497818;28;20098;-60
2022/03/21 05:45:23;;;;;;;1.85;1.70;;;;;;;18.54;38.91;98562.56;10499426;28;20301;-60
2022/03/21 05:50:43;;;;;;;3.13;1.80;;;;;;;18.58;38.81;98581.69;10499600;28;20495;-59
2022/03/21 05:56:04;;;;;;;1.83;1.60;;;;;;;18.60;39.09;98582.22;10509352;28;20048;-59
2022/03/21 06:01:23;;;;;;;3.15;2.13;;;;;;;18.62;39.01;98592.75;10474687;28;20056;-59
2022/03/21 06:06:44;;;;;;;3.05;1.80;;;;;;;18.65;39.05;98600.31;10494085;28;20503;-59
2022/03/21 06:12:04;;;;;;;13.77;3.75;;;;;;;18.68;39.00;98600.56;10480320;28;20052;-59
2022/03/21 06:17:23;;;;;;;14.20;4.50;;;;;;;18.72;38.99;98607.03;10483719;28;20053;-58
2022/03/21 06:22:43;;;;;;;14.40;4.50;;;;;;;18.76;39.08;98608.09;10488251;28;20052;-58
2022/03/21 06:28:03;;;;;;;19.42;4.82;;;;;;;18.81;39.11;98611.91;10517958;28;20047;-58
2022/03/21 06:33:25;;;;;;;12.63;3.95;;;;;;;18.85;39.23;98616.47;10492564;28;20093;-58
2022/03/21 06:38:44;;;;;;;17.70;5.10;;;;;;;18.89;39.20;98619.44;10489815;28;20052;-59
2022/03/21 06:44:05;;;;;;;14.20;4.97;;;;;;;18.94;39.26;98614.81;10454176;28;20062;-59
2022/03/21 06:49:30;;;;;;;12.30;4.32;;;;;;;18.99;39.18;98622.09;10455474;28;20042;-58
2022/03/21 06:54:50;;;;;;;11.13;3.70;;;;;;;19.02;39.06;98626.94;10479797;28;20052;-59
2022/03/21 07:00:09;;;;;;;9.68;3.97;;;;;;;19.04;39.14;98627.47;10450788;28;20053;-58
2022/03/21 07:05:29;;;;;;;10.65;4.10;;;;;;;19.07;38.94;98632.34;10449402;28;20087;-59
2022/03/21 07:10:48;;;;;;;9.02;4.13;;;;;;;19.09;39.01;98635.56;10462822;28;20057;-58
2022/03/21 07:16:09;;;;;;;8.90;4.03;;;;;;;19.12;38.99;98642.31;10439111;28;20645;-58
2022/03/21 07:21:29;;;;;;;12.07;4.15;;;;;;;19.14;38.98;98646.34;10439862;28;20057;-58
2022/03/21 07:26:49;;;;;;;11.00;3.70;;;;;;;19.17;38.83;98650.41;10485940;28;20033;-59
2022/03/21 07:32:09;;;;;;;12.25;4.22;;;;;;;19.19;38.88;98659.03;10433158;28;20060;-58
2022/03/21 07:37:28;;;;;;;9.13;4.13;;;;;;;19.20;38.89;98665.25;10475748;28;20060;-58
2022/03/21 07:42:48;;;;;;;7.50;3.72;;;;;;;19.21;38.84;98661.44;10463192;28;20088;-59
2022/03/21 07:48:11;;;;;;;9.45;3.83;;;;;;;19.24;38.81;98666.31;10458398;28;20049;-58
2022/03/21 07:53:31;;;;;;;9.57;4.05;;;;;;;19.24;38.61;98671.72;10463305;28;20053;-59
2022/03/21 07:58:51;;;;;;;10.93;3.80;;;;;;;19.24;38.67;98669.81;10449947;28;20055;-58
2022/03/21 08:04:10;;;;;;;11.10;4.38;;;;;;;19.26;38.74;98669.53;10489288;28;20505;-58
2022/03/21 08:09:30;;;;;;;8.23;3.72;;;;;;;19.27;38.71;98668.47;10482227;28;20156;-58
2022/03/21 08:14:49;;;;;;;6.50;3.35;;;;;;;19.27;38.72;98661.16;10442813;28;20041;-59
2022/03/21 08:20:10;;;;;;;6.32;3.40;;;;;;;19.28;38.49;98661.97;10431157;28;20436;-58
2022/03/21 08:25:30;;;;;;;8.85;3.22;;;;;;;19.28;38.60;98673.56;10467546;28;20036;-59
2022/03/21 08:30:49;;;;;;;7.45;3.17;;;;;;;19.28;38.49;98662.75;10476550;28;20073;-58
2022/03/21 08:36:11;;;;;;;7.40;3.63;;;;;;;19.29;38.55;98671.69;10472889;28;20049;-59
2022/03/21 08:41:30;;;;;;;6.20;3.35;;;;;;;19.30;38.50;98667.91;10487345;28;20056;-58
2022/03/21 08:46:50;;;;;;;7.40;3.28;;;;;;;19.29;38.04;98666.28;10511828;28;20508;-58
2022/03/21 08:52:11;;;;;;;7.07;3.53;;;;;;;19.29;37.86;98669.00;10509712;28;20139;-59
2022/03/21 08:57:32;;;;;;;6.13;3.30;;;;;;;19.30;37.95;98670.59;10540244;28;20411;-58
2022/03/21 09:02:54;;;;;;;6.78;3.10;;;;;;;19.30;37.92;98659.78;10538063;28;20040;-59
2022/03/21 09:08:15;;;;;;;4.75;2.97;;;;;;;19.30;37.94;98668.69;10506976;28;20151;-59
2022/03/21 09:13:34;;;;;;;6.15;2.90;;;;;;;19.31;37.76;98672.22;10543553;28;20035;-58
2022/03/21 09:18:54;;;;;;;6.47;3.13;;;;;;;19.31;37.85;98656.81;10520753;28;20055;-58
2022/03/21 09:24:13;;;;;;;8.30;3.33;;;;;;;19.30;37.85;98655.19;10494386;28;20060;-58
2022/03/21 09:29:33;;;;;;;5.95;2.80;;;;;;;19.32;38.03;98652.22;10505756;28;20037;-59
2022/03/21 09:34:52;;;;;;;5.03;2.80;;;;;;;19.31;37.85;98656.03;10505850;28;20105;-59
2022/03/21 09:40:12;;;;;;;4.07;2.67;;;;;;;19.31;38.03;98645.22;10516657;28;20062;-58
2022/03/21 09:45:32;;;;;;;4.90;2.60;;;;;;;19.31;38.04;98646.00;10484220;28;20048;-58
2022/03/21 09:50:52;;;;;;;6.57;2.85;;;;;;;19.31;38.02;98640.59;10532216;28;20403;-59
2022/03/21 09:56:12;;;;;;;4.70;2.60;;;;;;;19.31;38.12;98637.09;10523661;28;20495;-58
2022/03/21 10:01:33;;;;;;;5.28;2.75;;;;;;;19.31;38.11;98637.91;10500180;28;20090;-59
2022/03/21 10:06:58;;;;;;;4.32;2.53;;;;;;;19.31;38.13;98631.69;10496433;28;20048;-58
2022/03/21 10:12:18;;;;;;;4.07;2.58;;;;;;;19.31;38.17;98631.69;10522422;28;20052;-59
2022/03/21 10:17:38;;;;;;;4.47;2.70;;;;;;;19.30;38.30;98619.25;10512062;28;20055;-59
2022/03/21 10:22:57;;;;;;;4.43;2.88;;;;;;;19.31;38.18;98623.59;10484634;28;20060;-59
2022/03/21 10:28:34;;;;;;;4.70;2.40;;;;;;;19.31;38.34;98629.00;10469653;28;20045;-59
2022/03/21 10:34:05;;;;;;;4.88;2.88;;;;;;;19.30;38.70;98628.16;10499477;28;20550;-58
2022/03/21 10:39:25;;;;;;;14.40;3.72;;;;;;;19.30;38.70;98613.84;10496311;28;20057;-59
2022/03/21 10:44:54;;;;;;;7.57;2.90;;;;;;;19.29;38.85;98614.94;10516718;28;20058;-59
2022/03/21 10:50:13;;;;;;;7.00;3.28;;;;;;;19.30;39.10;98616.56;10551938;28;20553;-59
2022/03/21 10:55:33;;;;;;;7.10;3.20;;;;;;;19.29;39.34;98625.75;10500934;28;20048;-59
2022/03/21 11:00:52;;;;;;;9.20;5.22;;;;;;;19.28;40.18;98613.31;10500815;28;20056;-58
2022/03/21 11:06:13;;;;;;;4.38;2.90;;;;;;;19.29;41.14;98621.16;10509853;28;20041;-59
2022/03/21 11:11:33;;;;;;;5.65;2.85;;;;;;;19.29;41.16;98612.25;10495050;28;20063;-58
2022/03/21 11:16:54;;;;;;;4.13;2.42;;;;;;;19.29;41.02;98626.56;10487613;28;20519;-58
2022/03/21 11:22:13;;;;;;;4.32;2.40;;;;;;;19.30;41.00;98611.16;10495927;28;20415;-58
2022/03/21 11:28:06;;;;;;;4.13;2.80;;;;;;;19.28;40.36;98610.63;10471992;28;20098;-59
2022/03/21 11:33:42;;;;;;;4.82;2.58;;;;;;;19.26;40.01;98599.28;10517967;28;20049;-58
2022/03/21 11:39:03;;;;;;;3.25;2.30;;;;;;;19.27;40.08;98617.13;10488756;28;20091;-57
2022/03/21 11:44:23;;;;;;;5.57;2.63;;;;;;;19.26;40.23;98604.69;10498070;28;20078;-58
2022/03/21 11:49:43;;;;;;;6.78;2.47;;;;;;;19.25;40.15;98603.06;10529691;28;20048;-58
2022/03/21 11:55:28;;;;;;;4.10;2.20;;;;;;;19.24;40.12;98596.06;10499948;28;20500;-59
2022/03/21 12:01:07;;;;;;;5.57;2.38;;;;;;;19.23;40.07;98584.44;10532410;28;20048;-58
2022/03/21 12:06:30;;;;;;;3.75;2.28;;;;;;;19.24;39.98;98582.53;10531040;28;20036;-58
2022/03/21 12:11:50;;;;;;;4.65;2.67;;;;;;;19.23;39.97;98578.22;10493234;28;20154;-58
2022/03/21 12:17:10;;;;;;;4.75;2.40;;;;;;;19.22;39.98;98565.81;10490281;28;20487;-58
2022/03/21 12:22:36;;;;;;;3.97;2.50;;;;;;;19.22;39.92;98566.59;10488698;28;20052;-59
2022/03/21 12:27:58;;;;;;;3.53;2.20;;;;;;;19.21;39.90;98567.72;10493002;28;20040;-59
2022/03/21 12:33:22;;;;;;;5.25;2.70;;;;;;;19.21;39.99;98569.56;10505521;28;20053;-59
2022/03/21 12:38:42;;;;;;;4.97;2.60;;;;;;;19.21;39.93;98551.50;10496117;28;20049;-59
2022/03/21 12:44:02;;;;;;;6.03;2.85;;;;;;;19.20;39.77;98555.28;10492778;28;20619;-59
2022/03/21 12:49:25;;;;;;;6.30;3.10;;;;;;;19.20;39.97;98560.66;10466744;28;20442;-59
2022/03/21 12:54:48;;;;;;;6.78;3.08;;;;;;;19.20;39.79;98551.78;10493878;28;20404;-58
2022/03/21 13:00:17;;;;;;;7.28;3.75;;;;;;;19.19;39.87;98550.13;10487992;28;20040;-60
2022/03/21 13:11:29;;;;;;;5.28;3.00;;;;;;;19.17;39.81;98548.53;10474729;28;19924;-59
2022/03/21 13:17:00;;;;;;;5.57;3.10;;;;;;;19.17;39.80;98543.13;10481757;28;20047;-59
2022/03/21 13:22:19;;;;;;;7.43;3.03;;;;;;;19.17;39.74;98542.34;10500919;28;20049;-59
2022/03/21 13:27:39;;;;;;;7.03;3.50;;;;;;;19.16;39.82;98541.50;10506427;28;20044;-59
2022/03/21 13:32:58;;;;;;;4.97;3.20;;;;;;;19.15;39.93;98539.91;10504478;28;20059;-58
2022/03/21 13:38:21;;;;;;;6.65;3.10;;;;;;;19.14;39.98;98527.47;10504190;28;20036;-59
2022/03/21 13:43:43;;;;;;;7.45;3.47;;;;;;;19.15;39.98;98539.91;10495043;28;20582;-59
2022/03/21 13:49:02;;;;;;;7.57;3.33;;;;;;;19.13;40.17;98536.69;10529471;28;20038;-59
2022/03/21 13:54:22;;;;;;;4.75;3.05;;;;;;;19.13;40.42;98531.28;10493694;28;20049;-59
2022/03/21 13:59:41;;;;;;;7.75;4.43;;;;;;;19.10;34.39;98526.41;10492640;28;20036;-59
2022/03/21 14:05:15;;;;;;;4.85;4.22;;;;;;;19.02;28.64;98524.31;10486788;28;20527;-58
2022/03/21 14:10:39;;;;;;;6.18;4.50;;;;;;;18.96;29.31;98517.31;10491203;28;20056;-60
2022/03/21 14:15:59;;;;;;;4.65;4.13;;;;;;;18.94;30.94;98512.19;10489875;28;20049;-61
2022/03/21 14:21:18;;;;;;;4.95;3.92;;;;;;;18.96;31.55;98514.63;10492184;28;20060;-60
2022/03/21 14:26:40;;;;;;;6.15;3.70;;;;;;;18.98;31.70;98511.66;10488363;28;20048;-60
2022/03/21 14:32:00;;;;;;;5.28;3.65;;;;;;;19.00;32.08;98521.06;10497137;28;20056;-61
2022/03/21 14:37:19;;;;;;;4.75;3.40;;;;;;;19.01;32.39;98511.88;10491040;28;20594;-59
2022/03/21 14:42:41;;;;;;;5.07;4.05;;;;;;;19.05;30.42;98506.72;10472097;28;20052;-58
2022/03/21 14:48:02;;;;;;;6.53;3.95;;;;;;;19.03;28.33;98500.78;10494446;28;20098;-58
2022/03/21 14:53:22;;;;;;;4.75;3.38;;;;;;;19.01;29.97;98490.25;10491396;28;20052;-59
2022/03/21 14:58:43;;;;;;;5.38;3.72;;;;;;;19.02;28.35;98491.91;10488326;28;20075;-59
2022/03/21 15:04:03;;;;;;;8.32;4.03;;;;;;;19.01;25.95;98484.06;10508667;28;20085;-59
2022/03/21 15:09:22;;;;;;;6.35;3.67;;;;;;;19.02;27.25;98485.69;10490326;28;20060;-58
2022/03/21 15:14:43;;;;;;;5.15;3.85;;;;;;;19.05;27.75;98485.13;10455021;28;20064;-58
2022/03/21 15:20:05;;;;;;;3.67;3.30;;;;;;;19.10;28.22;98468.88;10452697;28;20108;-59
2022/03/21 15:25:25;;;;;;;3.83;3.25;;;;;;;19.16;28.80;98468.56;10459633;28;20056;-57
2022/03/21 15:30:45;;;;;;;4.40;3.30;;;;;;;19.23;29.36;98472.84;10511375;28;20096;-59
2022/03/21 15:41:53;;;;;;;4.47;2.90;;;;;;;19.38;31.02;98478.13;10438019;28;20475;-58
2022/03/21 15:47:15;;;;;;;4.28;3.30;;;;;;;19.40;31.91;98470.53;10506536;28;20576;-58
2022/03/21 15:52:35;;;;;;;4.00;2.85;;;;;;;19.45;32.55;98470.53;10501658;28;20112;-58
2022/03/21 15:57:57;;;;;;;4.28;2.97;;;;;;;19.51;33.04;98471.28;10519525;28;20056;-58
2022/03/21 16:03:17;;;;;;;3.78;3.00;;;;;;;19.55;33.57;98467.72;10526339;28;20067;-57
2022/03/21 16:08:37;;;;;;;3.22;2.90;;;;;;;19.56;34.08;98473.94;10569169;28;20573;-58
2022/03/21 16:13:58;;;;;;;5.68;2.83;;;;;;;19.56;34.57;98469.34;10538859;28;20467;-58
2022/03/21 16:19:18;;;;;;;3.22;2.58;;;;;;;19.59;34.90;98472.56;10558154;28;20031;-59
2022/03/21 16:24:37;;;;;;;3.47;2.70;;;;;;;19.60;35.31;98475.00;10550519;28;20044;-58
2022/03/21 16:29:58;;;;;;;2.90;2.60;;;;;;;19.61;35.59;98475.81;10573202;28;20606;-59
2022/03/21 16:35:18;;;;;;;3.40;2.70;;;;;;;19.63;36.10;98485.22;10552990;28;20044;-58
2022/03/21 16:40:37;;;;;;;5.10;3.75;;;;;;;19.56;34.82;98485.56;10535309;28;20052;-62
2022/03/21 16:45:57;;;;;;;4.95;3.33;;;;;;;19.57;36.17;98486.38;10534657;28;20471;-61
2022/03/21 16:51:19;;;;;;;4.85;3.17;;;;;;;19.60;36.90;98488.53;10537601;28;20052;-61
2022/03/21 16:56:39;;;;;;;4.25;2.90;;;;;;;19.62;37.43;98480.94;10536363;28;20536;-59
2022/03/21 17:01:59;;;;;;;20.08;11.18;;;;;;;19.65;38.38;98487.66;10536659;28;20054;-61
2022/03/21 17:07:20;;;;;;;39.63;25.50;;;;;;;19.66;39.84;98489.25;10548738;28;20090;-61
2022/03/21 17:12:41;;;;;;;38.65;20.75;;;;;;;19.68;40.13;98487.06;10553886;28;20071;-61
2022/03/21 17:23:06;;;;;;;31.20;17.85;;;;;;;19.69;40.13;98486.81;10552873;28;20040;-61
2022/03/21 17:23:40;;;;;;;30.83;15.73;;;;;;;19.71;41.78;98492.75;10545819;28;20055;-62
2022/03/21 17:29:00;;;;;;;27.92;16.10;;;;;;;19.76;42.07;98500.03;10537897;28;20058;-62
2022/03/21 17:34:20;;;;;;;26.73;15.30;;;;;;;19.79;42.72;98502.16;10545329;28;20499;-62
2022/03/21 17:39:39;;;;;;;28.13;14.10;;;;;;;19.81;42.78;98518.09;10555227;28;20036;-54
2022/03/21 17:44:59;;;;;;;25.40;13.48;;;;;;;19.80;43.02;98513.78;10541657;28;20052;-62
2022/03/21 17:50:19;;;;;;;26.00;12.55;;;;;;;19.80;43.21;98527.28;10543417;28;20052;-60
2022/03/21 17:55:39;;;;;;;22.58;11.48;;;;;;;19.80;43.13;98536.25;10565419;28;20096;-51
2022/03/21 18:00:59;;;;;;;18.85;10.52;;;;;;;19.79;43.08;98531.91;10547118;28;20044;-58
2022/03/21 18:06:19;;;;;;;18.15;10.80;;;;;;;19.78;43.04;98534.88;10552737;28;20383;-61
2022/03/21 18:11:38;;;;;;;19.17;9.77;;;;;;;19.77;43.03;98544.91;10558455;28;20047;-62
2022/03/21 18:16:58;;;;;;;16.38;9.60;;;;;;;19.78;43.10;98545.72;10549218;28;20040;-62
2022/03/21 18:22:18;;;;;;;15.27;8.90;;;;;;;19.78;42.94;98545.72;10530837;28;20097;-62
2022/03/21 18:27:38;;;;;;;12.68;8.30;;;;;;;19.78;42.92;98551.13;10543106;28;20368;-61
2022/03/21 18:32:58;;;;;;;13.50;7.85;;;;;;;19.77;43.07;98554.91;10549038;28;20050;-60
2022/03/21 18:38:18;;;;;;;12.80;7.82;;;;;;;19.79;42.83;98553.53;10547216;28;20047;-61
2022/03/21 18:43:38;;;;;;;11.80;8.32;;;;;;;19.76;38.66;98559.53;10547435;28;20147;-60
2022/03/21 18:48:57;;;;;;;11.35;7.85;;;;;;;19.33;31.42;98562.75;10520949;28;20044;-59
2022/03/21 18:54:16;;;;;;;10.25;6.60;;;;;;;19.36;34.16;98569.50;10542059;28;20062;-58
2022/03/21 18:59:36;;;;;;;8.55;6.22;;;;;;;19.44;36.42;98566.19;10545291;28;20040;-57
2022/03/21 19:04:59;;;;;;;10.82;6.15;;;;;;;19.50;37.10;98567.81;10557760;28;20055;-59
2022/03/21 19:10:19;;;;;;;8.18;5.47;;;;;;;19.54;37.30;98562.63;10541514;28;20058;-59
2022/03/21 19:15:38;;;;;;;9.02;5.32;;;;;;;19.55;37.48;98570.44;10539223;28;20388;-57
2022/03/21 19:20:58;;;;;;;10.05;5.07;;;;;;;19.56;38.05;98571.25;10537049;28;20060;-58
2022/03/21 19:26:17;;;;;;;9.23;5.57;;;;;;;19.58;38.53;98579.09;10539993;28;20067;-60
2022/03/21 19:31:37;;;;;;;11.25;4.90;;;;;;;19.58;38.82;98579.09;10547804;28;20044;-66
2022/03/21 19:36:57;;;;;;;10.98;4.70;;;;;;;19.59;39.20;98583.41;10541906;28;20044;-58
2022/03/21 19:47:56;;;;;;;5.05;4.28;;;;;;;19.59;39.79;98580.72;10539262;28;20052;-62
2022/03/21 19:53:17;;;;;;;7.28;4.32;;;;;;;19.58;40.09;98588.00;10520612;28;20047;-63
2022/03/21 19:58:37;;;;;;;6.63;4.13;;;;;;;19.58;40.27;98596.09;10539616;28;20058;-58
2022/03/21 20:03:57;;;;;;;8.43;4.32;;;;;;;19.58;40.49;98600.72;10552006;28;20451;-61
2022/03/21 20:09:17;;;;;;;6.88;4.38;;;;;;;19.56;40.67;98604.53;10539590;28;20036;-60
2022/03/21 20:14:37;;;;;;;7.90;3.95;;;;;;;19.59;40.54;98603.16;10535365;28;20048;-61
2022/03/21 20:19:57;;;;;;;7.63;4.28;;;;;;;19.58;40.96;98608.81;10537658;28;20050;-61
2022/03/21 20:25:16;;;;;;;5.05;3.58;;;;;;;19.56;40.77;98604.53;10538800;28;20056;-61
2022/03/21 20:30:36;;;;;;;5.97;4.03;;;;;;;19.58;40.88;98612.31;10538683;28;20111;-61
2022/03/21 20:35:56;;;;;;;4.95;3.60;;;;;;;19.56;40.95;98609.94;10564216;28;20088;-61
2022/03/21 20:41:16;;;;;;;6.43;3.80;;;;;;;19.55;41.02;98612.91;10528083;28;20295;-61
2022/03/21 20:46:37;;;;;;;5.18;3.78;;;;;;;19.54;41.04;98606.69;10538419;28;20052;-60
2022/03/21 20:51:56;;;;;;;6.97;3.85;;;;;;;19.54;41.25;98609.41;10559477;28;20497;-61
2022/03/21 20:57:19;;;;;;;6.13;4.00;;;;;;;19.54;41.28;98616.69;10514881;28;20131;-62
2022/03/21 21:02:39;;;;;;;4.85;3.47;;;;;;;19.53;41.32;98615.88;10494010;28;20052;-61
2022/03/21 21:07:59;;;;;;;5.28;3.70;;;;;;;19.52;41.30;98611.56;10506379;28;20090;-61
2022/03/21 21:13:20;;;;;;;5.43;3.60;;;;;;;19.51;41.15;98607.25;10495480;28;20064;-62
2022/03/21 21:18:39;;;;;;;6.43;3.45;;;;;;;19.52;41.32;98613.44;10497904;28;20067;-60
2022/03/21 21:23:59;;;;;;;5.70;3.63;;;;;;;19.51;41.35;98614.56;10521449;28;20047;-61
2022/03/21 21:29:18;;;;;;;4.55;3.58;;;;;;;19.51;41.50;98607.25;10513137;28;20071;-61
2022/03/21 21:34:38;;;;;;;6.65;3.53;;;;;;;19.50;41.52;98604.81;10493641;28;20052;-62
2022/03/21 21:39:57;;;;;;;4.68;3.47;;;;;;;19.51;41.51;98601.03;10494393;28;20075;-61
2022/03/21 21:45:16;;;;;;;5.43;3.63;;;;;;;19.47;41.63;98595.38;10492207;28;20048;-62
2022/03/21 21:50:36;;;;;;;6.75;3.70;;;;;;;19.48;41.63;98597.00;10496832;28;20071;-61
2022/03/21 21:55:56;;;;;;;4.38;3.65;;;;;;;19.49;41.50;98592.41;10512292;28;20051;-60
2022/03/21 22:01:15;;;;;;;5.97;3.72;;;;;;;19.46;41.41;98584.84;10529449;28;20048;-61
2022/03/21 22:06:34;;;;;;;4.35;3.53;;;;;;;19.46;41.33;98584.84;10530954;28;20052;-60
2022/03/21 22:11:54;;;;;;;4.43;3.42;;;;;;;19.44;41.38;98589.72;10526098;28;20397;-60
2022/03/21 22:17:13;;;;;;;5.93;3.53;;;;;;;19.42;41.26;98586.50;10528481;28;20040;-60
2022/03/21 22:22:33;;;;;;;5.60;3.50;;;;;;;19.43;41.16;98585.41;10532565;28;20048;-60
2022/03/21 22:27:53;;;;;;;4.85;3.63;;;;;;;19.40;41.10;98578.66;10536349;28;20117;-61
2022/03/21 22:33:13;;;;;;;4.90;3.80;;;;;;;19.40;41.06;98575.16;10538553;28;20563;-60
2022/03/21 22:38:33;;;;;;;4.03;3.60;;;;;;;19.38;41.05;98580.81;10537867;28;20055;-61
2022/03/21 22:49:31;;;;;;;5.80;3.65;;;;;;;19.36;41.04;98577.59;10535955;28;20072;-61
2022/03/21 22:54:51;;;;;;;6.28;3.47;;;;;;;19.35;40.94;98570.59;10522046;28;20032;-60
2022/03/21 23:00:31;;;;;;;4.22;3.63;;;;;;;19.34;40.93;98579.78;10506624;28;20059;-61
2022/03/21 23:05:51;;;;;;;4.05;3.58;;;;;;;19.31;40.87;98569.53;10505604;28;20128;-60
2022/03/21 23:11:10;;;;;;;5.15;3.40;;;;;;;19.30;40.67;98579.53;10508632;28;20058;-60
2022/03/21 23:16:30;;;;;;;4.60;3.53;;;;;;;19.29;40.78;98583.31;10550245;28;20059;-60
2022/03/21 23:21:51;;;;;;;3.92;3.35;;;;;;;19.28;40.66;98586.31;10526487;28;20399;-60
2022/03/21 23:27:11;;;;;;;4.72;3.67;;;;;;;19.27;40.60;98585.50;10526603;28;20043;-60
2022/03/21 23:32:30;;;;;;;5.18;3.83;;;;;;;19.26;40.64;98588.47;10538524;28;20056;-60
2022/03/21 23:37:49;;;;;;;4.47;3.10;;;;;;;19.25;40.60;98586.84;10520339;28;20055;-61
2022/03/21 23:43:08;;;;;;;3.95;3.20;;;;;;;19.25;40.64;98589.53;10513690;28;20059;-60
2022/03/21 23:48:28;;;;;;;4.72;3.42;;;;;;;19.23;40.61;98583.63;10520986;28;20094;-60
2022/03/21 23:53:48;;;;;;;3.90;3.10;;;;;;;19.22;40.46;98587.41;10518091;28;20044;-60
2022/03/21 23:59:07;;;;;;;5.03;3.35;;;;;;;19.20;40.48;98589.59;10527512;28;20559;-60
